Time;durP1;ratioP1;P1;durP2;ratioP2;P2;SDS_P1;SDS_P2;PMS_P1;PMS_P2;Temp;Humidity;BMP_temperature;BMP_pressure;BME280_temperature;BME280_humidity;BME280_pressure;Samples;Min_cycle;Max_cycle;Signal;HPM_P1;HPM_P2
2024/02/13 00:00:29;;;;;;;8.98;2.83;;;;;;;;;;2057541;28;20470;-47
2024/02/13 00:01:30;;;;;;;7.78;2.40;;;;;;;;;;2057013;28;20381;-48
2024/02/13 00:02:31;;;;;;;11.77;3.30;;;;;;;;;;2053622;28;20035;-47
2024/02/13 00:03:33;;;;;;;9.90;3.13;;;;;;;;;;2056989;28;20544;-48
2024/02/13 00:04:34;;;;;;;8.13;2.80;;;;;;;;;;2057727;28;20104;-46
2024/02/13 00:05:35;;;;;;;12.55;2.90;;;;;;;;;;2057892;28;20090;-47
2024/02/13 00:06:37;;;;;;;12.52;3.08;;;;;;;;;;2057554;28;20041;-47
2024/02/13 00:07:39;;;;;;;7.25;2.97;;;;;;;;;;2057552;28;20023;-47
2024/02/13 00:08:41;;;;;;;12.65;2.92;;;;;;;;;;2057182;28;20022;-47
2024/02/13 00:09:43;;;;;;;8.90;2.22;;;;;;;;;;2056417;28;20038;-47
2024/02/13 00:10:45;;;;;;;8.15;2.80;;;;;;;;;;2057463;28;20033;-46
2024/02/13 00:11:46;;;;;;;8.13;2.47;;;;;;;;;;2057603;28;20114;-47
2024/02/13 00:12:48;;;;;;;11.75;2.50;;;;;;;;;;2057553;28;20015;-47
2024/02/13 00:13:49;;;;;;;7.57;2.10;;;;;;;;;;2057780;28;20011;-48
2024/02/13 00:14:51;;;;;;;7.97;2.15;;;;;;;;;;2060897;28;20022;-47
2024/02/13 00:15:54;;;;;;;6.82;2.20;;;;;;;;;;2057539;28;20023;-47
2024/02/13 00:16:56;;;;;;;7.93;2.05;;;;;;;;;;2052309;28;20430;-47
2024/02/13 00:17:59;;;;;;;9.00;2.30;;;;;;;;;;2056122;28;20051;-47
2024/02/13 00:19:01;;;;;;;8.30;2.20;;;;;;;;;;2057543;28;20046;-48
2024/02/13 00:20:08;;;;;;;8.32;1.95;;;;;;;;;;2056801;28;20029;-47
2024/02/13 00:21:09;;;;;;;10.63;2.28;;;;;;;;;;2057059;28;20031;-48
2024/02/13 00:22:14;;;;;;;9.63;2.50;;;;;;;;;;2057489;28;20007;-48
2024/02/13 00:23:17;;;;;;;10.75;3.20;;;;;;;;;;2057451;28;20505;-47
2024/02/13 00:24:18;;;;;;;14.15;2.83;;;;;;;;;;2057697;28;20480;-47
2024/02/13 00:25:19;;;;;;;8.63;2.70;;;;;;;;;;2057018;28;20031;-47
2024/02/13 00:26:23;;;;;;;6.88;2.13;;;;;;;;;;2057281;28;20027;-47
2024/02/13 00:27:25;;;;;;;11.13;3.15;;;;;;;;;;2057620;28;20103;-48
2024/02/13 00:28:26;;;;;;;11.32;2.22;;;;;;;;;;2052170;28;20387;-47
2024/02/13 00:29:28;;;;;;;12.35;2.42;;;;;;;;;;2060642;28;20015;-46
2024/02/13 00:30:29;;;;;;;9.98;2.55;;;;;;;;;;2056945;28;20023;-47
2024/02/13 00:31:31;;;;;;;8.95;2.15;;;;;;;;;;2056809;28;20458;-47
2024/02/13 00:32:33;;;;;;;9.82;2.15;;;;;;;;;;2061944;28;20373;-47
2024/02/13 00:33:37;;;;;;;8.07;2.15;;;;;;;;;;2057440;28;20034;-48
2024/02/13 00:34:39;;;;;;;9.18;2.40;;;;;;;;;;2056922;28;20549;-48
2024/02/13 00:35:40;;;;;;;10.85;2.63;;;;;;;;;;2057704;28;20027;-47
2024/02/13 00:36:41;;;;;;;8.10;2.42;;;;;;;;;;2057571;28;20097;-48
2024/02/13 00:37:46;;;;;;;8.00;2.08;;;;;;;;;;2057574;28;20027;-48
2024/02/13 00:38:47;;;;;;;12.02;2.53;;;;;;;;;;2057017;28;20549;-47
2024/02/13 00:39:48;;;;;;;9.52;2.05;;;;;;;;;;2051105;28;20029;-48
2024/02/13 00:40:50;;;;;;;8.95;2.25;;;;;;;;;;2056204;28;20018;-48
2024/02/13 00:41:51;;;;;;;9.57;2.60;;;;;;;;;;2057415;28;20455;-48
2024/02/13 00:42:52;;;;;;;7.55;2.00;;;;;;;;;;2057652;28;20162;-48
2024/02/13 00:43:54;;;;;;;11.50;1.90;;;;;;;;;;2057561;28;20027;-48
2024/02/13 00:44:55;;;;;;;11.35;2.80;;;;;;;;;;2057423;28;20479;-49
2024/02/13 00:45:57;;;;;;;9.52;2.53;;;;;;;;;;2057155;28;20571;-47
2024/02/13 00:46:58;;;;;;;7.72;1.98;;;;;;;;;;2056989;28;20046;-48
2024/02/13 00:47:59;;;;;;;11.65;3.10;;;;;;;;;;2057094;28;20030;-48
2024/02/13 00:49:03;;;;;;;10.57;1.98;;;;;;;;;;2057281;28;20023;-47
2024/02/13 00:50:05;;;;;;;9.63;2.28;;;;;;;;;;2057480;28;20046;-47
2024/02/13 00:51:06;;;;;;;8.88;2.45;;;;;;;;;;2054113;28;20063;-47
2024/02/13 00:52:08;;;;;;;13.52;3.25;;;;;;;;;;2056622;28;20023;-47
2024/02/13 00:53:10;;;;;;;8.40;2.47;;;;;;;;;;2057577;28;20019;-46
2024/02/13 00:54:13;;;;;;;8.55;2.38;;;;;;;;;;2057806;28;20027;-47
2024/02/13 00:55:15;;;;;;;8.45;2.38;;;;;;;;;;2056529;28;20156;-47
2024/02/13 00:56:16;;;;;;;11.23;3.05;;;;;;;;;;2056832;28;20094;-47
2024/02/13 00:57:17;;;;;;;7.80;2.80;;;;;;;;;;2057034;28;20088;-47
2024/02/13 00:58:19;;;;;;;8.10;2.13;;;;;;;;;;2057073;28;20011;-47
2024/02/13 00:59:20;;;;;;;9.45;2.63;;;;;;;;;;2056587;28;20499;-47
2024/02/13 01:00:21;;;;;;;8.57;1.98;;;;;;;;;;2057795;28;20027;-47
2024/02/13 01:01:22;;;;;;;5.82;1.90;;;;;;;;;;2056683;28;20031;-47
2024/02/13 01:02:24;;;;;;;9.10;2.50;;;;;;;;;;2056824;28;20054;-47
2024/02/13 01:03:25;;;;;;;11.63;2.80;;;;;;;;;;2056953;28;20039;-49
2024/02/13 01:04:26;;;;;;;8.93;2.30;;;;;;;;;;2057557;28;20181;-47
2024/02/13 01:05:32;;;;;;;9.65;2.15;;;;;;;;;;2057116;28;20429;-47
2024/02/13 01:06:33;;;;;;;12.25;2.28;;;;;;;;;;2056132;28;20089;-48
2024/02/13 01:07:35;;;;;;;10.02;1.90;;;;;;;;;;2056835;28;20030;-47
2024/02/13 01:08:37;;;;;;;11.38;2.30;;;;;;;;;;2056988;28;20046;-47
2024/02/13 01:09:38;;;;;;;9.85;2.78;;;;;;;;;;2057274;28;20027;-47
2024/02/13 01:10:40;;;;;;;8.32;2.20;;;;;;;;;;2057040;28;20022;-47
2024/02/13 01:11:41;;;;;;;10.43;2.33;;;;;;;;;;2056996;28;20023;-50
2024/02/13 01:12:42;;;;;;;11.82;2.70;;;;;;;;;;2057230;28;20031;-48
2024/02/13 01:13:43;;;;;;;10.27;2.42;;;;;;;;;;2057018;28;20113;-49
2024/02/13 01:14:45;;;;;;;8.25;2.33;;;;;;;;;;2056571;28;20019;-50
2024/02/13 01:15:46;;;;;;;9.13;2.53;;;;;;;;;;2049317;28;20015;-49
2024/02/13 01:16:48;;;;;;;10.23;2.70;;;;;;;;;;2053456;28;20019;-50
2024/02/13 01:17:49;;;;;;;7.20;2.22;;;;;;;;;;2057268;28;20011;-50
2024/02/13 01:18:51;;;;;;;7.75;2.20;;;;;;;;;;2057077;28;20023;-50
2024/02/13 01:19:52;;;;;;;10.75;2.10;;;;;;;;;;2056981;28;20022;-50
2024/02/13 01:20:54;;;;;;;7.47;2.20;;;;;;;;;;2057239;28;20094;-48
2024/02/13 01:21:55;;;;;;;7.93;2.30;;;;;;;;;;2056903;28;20054;-48
2024/02/13 01:22:56;;;;;;;10.05;2.47;;;;;;;;;;2056468;28;20139;-48
2024/02/13 01:23:58;;;;;;;7.82;2.17;;;;;;;;;;2049248;28;20035;-47
2024/02/13 01:24:59;;;;;;;6.97;2.08;;;;;;;;;;2053320;28;20037;-47
2024/02/13 01:26:03;;;;;;;7.07;2.47;;;;;;;;;;2057066;28;20482;-47
2024/02/13 01:27:04;;;;;;;8.52;2.75;;;;;;;;;;2049125;29;20483;-48
2024/02/13 01:28:09;;;;;;;9.85;2.55;;;;;;;;;;2052334;28;20352;-47
2024/02/13 01:29:11;;;;;;;9.07;2.45;;;;;;;;;;2056335;28;20088;-46
2024/02/13 01:30:15;;;;;;;9.93;2.50;;;;;;;;;;2056071;28;20528;-47
2024/02/13 01:31:17;;;;;;;17.25;2.15;;;;;;;;;;2056703;28;20027;-47
2024/02/13 01:32:18;;;;;;;9.38;2.55;;;;;;;;;;2057042;28;20027;-46
2024/02/13 01:33:19;;;;;;;7.95;2.60;;;;;;;;;;2056969;28;20031;-48
2024/02/13 01:34:20;;;;;;;11.65;2.92;;;;;;;;;;2056818;28;20035;-47
2024/02/13 01:35:21;;;;;;;11.77;2.70;;;;;;;;;;2057045;28;20015;-47
2024/02/13 01:36:23;;;;;;;5.63;2.13;;;;;;;;;;2056855;28;20030;-47
2024/02/13 01:37:24;;;;;;;9.23;3.03;;;;;;;;;;2056980;28;20165;-47
2024/02/13 01:38:29;;;;;;;7.43;2.22;;;;;;;;;;2056987;28;20345;-46
2024/02/13 01:39:32;;;;;;;9.13;2.40;;;;;;;;;;2056877;28;20072;-47
2024/02/13 01:40:33;;;;;;;14.20;2.60;;;;;;;;;;2056998;28;20573;-47
2024/02/13 01:41:34;;;;;;;9.75;2.08;;;;;;;;;;2056735;28;20023;-48
2024/02/13 01:42:38;;;;;;;7.90;2.08;;;;;;;;;;2056900;28;20521;-47
2024/02/13 01:43:40;;;;;;;6.93;2.30;;;;;;;;;;2057210;28;20398;-47
2024/02/13 01:44:41;;;;;;;10.82;2.08;;;;;;;;;;2056763;28;20030;-50
2024/02/13 01:45:46;;;;;;;7.13;2.67;;;;;;;;;;2056872;28;20027;-51
2024/02/13 01:46:47;;;;;;;7.72;2.70;;;;;;;;;;2056997;28;20026;-51
2024/02/13 01:47:48;;;;;;;8.32;2.15;;;;;;;;;;2056902;28;20037;-51
2024/02/13 01:48:49;;;;;;;8.10;2.50;;;;;;;;;;2057074;28;20035;-51
2024/02/13 01:49:51;;;;;;;8.77;2.08;;;;;;;;;;2057119;28;20010;-50
2024/02/13 01:50:52;;;;;;;9.85;2.30;;;;;;;;;;2056673;28;20035;-52
2024/02/13 01:51:54;;;;;;;9.80;2.95;;;;;;;;;;2056997;28;20450;-51
2024/02/13 01:52:56;;;;;;;9.48;2.35;;;;;;;;;;2056674;28;20031;-51
2024/02/13 01:53:59;;;;;;;12.57;2.88;;;;;;;;;;2056691;28;20021;-51
2024/02/13 01:55:02;;;;;;;8.75;2.92;;;;;;;;;;2056232;28;20042;-50
2024/02/13 01:56:05;;;;;;;11.18;2.83;;;;;;;;;;2056030;28;20469;-50
2024/02/13 01:57:07;;;;;;;7.85;2.95;;;;;;;;;;2056767;28;20047;-50
2024/02/13 01:58:10;;;;;;;12.95;2.92;;;;;;;;;;2056993;28;20098;-51
2024/02/13 01:59:14;;;;;;;11.65;2.72;;;;;;;;;;2056038;28;20031;-51
2024/02/13 02:00:15;;;;;;;11.75;3.00;;;;;;;;;;2056483;28;20030;-48
2024/02/13 02:01:17;;;;;;;11.85;2.45;;;;;;;;;;2056520;28;20026;-51
2024/02/13 02:02:18;;;;;;;8.57;2.60;;;;;;;;;;2056370;28;20026;-52
2024/02/13 02:03:19;;;;;;;11.02;2.78;;;;;;;;;;2059727;28;20033;-50
2024/02/13 02:04:22;;;;;;;10.73;3.42;;;;;;;;;;2056312;28;20050;-51
2024/02/13 02:05:23;;;;;;;8.45;2.08;;;;;;;;;;2056220;28;20113;-52
2024/02/13 02:06:24;;;;;;;12.57;3.00;;;;;;;;;;2055690;28;20035;-51
2024/02/13 02:07:27;;;;;;;9.40;3.05;;;;;;;;;;2056121;28;20018;-49
2024/02/13 02:08:28;;;;;;;9.52;2.63;;;;;;;;;;2056681;28;20397;-51
2024/02/13 02:09:29;;;;;;;9.07;2.70;;;;;;;;;;2055949;28;20030;-51
2024/02/13 02:10:31;;;;;;;8.63;2.60;;;;;;;;;;2056148;28;20050;-50
2024/02/13 02:11:32;;;;;;;8.18;2.10;;;;;;;;;;2056739;28;20031;-51
2024/02/13 02:12:35;;;;;;;7.68;2.33;;;;;;;;;;2056023;28;20030;-50
2024/02/13 02:13:36;;;;;;;14.82;3.10;;;;;;;;;;2056551;28;20057;-48
2024/02/13 02:14:43;;;;;;;11.68;2.88;;;;;;;;;;2056938;28;20014;-51
2024/02/13 02:15:44;;;;;;;11.98;3.33;;;;;;;;;;2060520;28;20049;-51
2024/02/13 02:16:45;;;;;;;11.68;2.78;;;;;;;;;;2064098;28;20088;-49
2024/02/13 02:17:53;;;;;;;6.05;2.40;;;;;;;;;;2056328;28;20034;-49
2024/02/13 02:18:55;;;;;;;7.82;2.65;;;;;;;;;;2056677;28;20025;-50
2024/02/13 02:19:57;;;;;;;10.40;2.58;;;;;;;;;;2056839;28;20027;-48
2024/02/13 02:20:58;;;;;;;13.23;2.60;;;;;;;;;;2056388;28;20023;-49
2024/02/13 02:21:59;;;;;;;11.63;3.15;;;;;;;;;;2055902;28;20074;-50
2024/02/13 02:23:00;;;;;;;12.88;2.88;;;;;;;;;;2055918;28;20027;-51
2024/02/13 02:24:03;;;;;;;10.07;2.78;;;;;;;;;;2048855;28;20034;-50
2024/02/13 02:25:08;;;;;;;11.48;2.80;;;;;;;;;;2053930;28;20030;-51
2024/02/13 02:26:10;;;;;;;7.88;2.50;;;;;;;;;;2056530;28;20050;-50
2024/02/13 02:27:12;;;;;;;8.20;2.40;;;;;;;;;;2056691;28;20023;-49
2024/02/13 02:28:15;;;;;;;7.63;2.75;;;;;;;;;;2056508;28;20019;-51
2024/02/13 02:29:16;;;;;;;12.68;2.47;;;;;;;;;;2056737;28;20541;-52
2024/02/13 02:30:18;;;;;;;8.55;2.85;;;;;;;;;;2056532;28;20022;-50
2024/02/13 02:31:20;;;;;;;9.02;2.50;;;;;;;;;;2053293;28;20031;-50
2024/02/13 02:32:23;;;;;;;10.45;3.22;;;;;;;;;;2058674;28;20022;-49
2024/02/13 02:33:24;;;;;;;8.95;2.70;;;;;;;;;;2055771;28;20105;-49
2024/02/13 02:34:26;;;;;;;8.85;2.85;;;;;;;;;;2056347;28;20006;-51
2024/02/13 02:35:27;;;;;;;10.80;3.17;;;;;;;;;;2056654;28;20066;-48
2024/02/13 02:36:29;;;;;;;10.13;2.88;;;;;;;;;;2055998;28;20014;-51
2024/02/13 02:37:31;;;;;;;8.75;2.70;;;;;;;;;;2056106;28;20029;-51
2024/02/13 02:38:35;;;;;;;11.05;2.70;;;;;;;;;;2055294;28;20027;-51
2024/02/13 02:39:36;;;;;;;10.65;2.80;;;;;;;;;;2056641;28;20092;-52
2024/02/13 02:40:38;;;;;;;8.88;2.70;;;;;;;;;;2056045;28;20895;-51
2024/02/13 02:41:41;;;;;;;9.80;2.47;;;;;;;;;;2056797;28;20362;-51
2024/02/13 02:42:45;;;;;;;6.95;2.08;;;;;;;;;;2058439;28;20022;-51
2024/02/13 02:43:47;;;;;;;9.18;3.05;;;;;;;;;;2064733;28;20050;-49
2024/02/13 02:44:48;;;;;;;6.65;2.58;;;;;;;;;;2055803;28;20675;-50
2024/02/13 02:45:49;;;;;;;6.82;2.42;;;;;;;;;;2056631;28;20039;-51
2024/02/13 02:46:50;;;;;;;7.78;3.22;;;;;;;;;;2056003;28;20437;-51
2024/02/13 02:47:52;;;;;;;14.80;3.45;;;;;;;;;;2056415;28;20014;-49
2024/02/13 02:48:53;;;;;;;10.27;3.20;;;;;;;;;;2056628;28;20099;-51
2024/02/13 02:49:55;;;;;;;10.80;2.70;;;;;;;;;;2050511;28;20023;-52
2024/02/13 02:50:56;;;;;;;11.88;2.72;;;;;;;;;;2052168;28;20015;-52
2024/02/13 02:51:58;;;;;;;7.93;2.33;;;;;;;;;;2055808;28;20057;-52
2024/02/13 02:52:59;;;;;;;8.60;2.55;;;;;;;;;;2051055;28;20126;-50
2024/02/13 02:54:00;;;;;;;10.93;2.70;;;;;;;;;;2056075;28;20023;-50
2024/02/13 02:55:01;;;;;;;9.52;3.00;;;;;;;;;;2055962;28;20038;-51
2024/02/13 02:56:03;;;;;;;8.05;2.90;;;;;;;;;;2056481;28;20022;-49
2024/02/13 02:57:04;;;;;;;10.60;2.90;;;;;;;;;;2056133;28;20026;-49
2024/02/13 02:58:08;;;;;;;9.00;3.20;;;;;;;;;;2055939;28;20106;-53
2024/02/13 02:59:09;;;;;;;9.63;2.40;;;;;;;;;;2056516;28;20035;-47
2024/02/13 03:00:12;;;;;;;7.47;3.00;;;;;;;;;;2056695;28;20023;-50
2024/02/13 03:01:13;;;;;;;10.80;3.10;;;;;;;;;;2056566;28;20014;-51
2024/02/13 03:02:15;;;;;;;10.32;2.55;;;;;;;;;;2055633;28;20046;-51
2024/02/13 03:03:20;;;;;;;9.07;2.65;;;;;;;;;;2049056;28;20015;-51
2024/02/13 03:04:21;;;;;;;9.13;2.80;;;;;;;;;;2049045;28;20095;-51
2024/02/13 03:05:23;;;;;;;11.82;3.28;;;;;;;;;;2056508;28;20023;-49
2024/02/13 03:06:24;;;;;;;8.70;2.70;;;;;;;;;;2056554;28;20061;-52
2024/02/13 03:07:25;;;;;;;8.90;2.72;;;;;;;;;;2056019;28;20122;-50
2024/02/13 03:08:28;;;;;;;7.05;2.38;;;;;;;;;;2055767;28;20015;-53
2024/02/13 03:09:29;;;;;;;8.00;2.38;;;;;;;;;;2056789;28;20086;-52
2024/02/13 03:10:30;;;;;;;10.90;3.00;;;;;;;;;;2055285;28;20022;-49
2024/02/13 03:11:34;;;;;;;12.95;2.83;;;;;;;;;;2055237;28;20034;-51
2024/02/13 03:12:35;;;;;;;9.68;2.58;;;;;;;;;;2055751;28;20023;-51
2024/02/13 03:13:37;;;;;;;11.05;3.13;;;;;;;;;;2056365;28;20723;-50
2024/02/13 03:14:38;;;;;;;12.60;3.05;;;;;;;;;;2056742;28;20018;-51
2024/02/13 03:15:39;;;;;;;8.63;2.45;;;;;;;;;;2055394;28;20086;-52
2024/02/13 03:16:43;;;;;;;8.75;3.05;;;;;;;;;;2056302;28;20015;-48
2024/02/13 03:17:45;;;;;;;11.40;2.92;;;;;;;;;;2056756;28;20090;-51
2024/02/13 03:18:46;;;;;;;11.93;2.72;;;;;;;;;;2056569;28;20023;-51
2024/02/13 03:19:48;;;;;;;9.00;2.97;;;;;;;;;;2056586;28;20025;-51
2024/02/13 03:20:49;;;;;;;9.82;2.55;;;;;;;;;;2056750;28;20019;-51
2024/02/13 03:21:51;;;;;;;7.57;2.40;;;;;;;;;;2055709;28;20031;-46
2024/02/13 03:22:52;;;;;;;7.60;2.85;;;;;;;;;;2056451;28;20023;-48
2024/02/13 03:23:53;;;;;;;9.57;2.30;;;;;;;;;;2055642;28;20109;-51
2024/02/13 03:24:54;;;;;;;9.05;3.17;;;;;;;;;;2056280;28;20027;-52
2024/02/13 03:25:56;;;;;;;10.18;2.88;;;;;;;;;;2055762;28;20106;-51
2024/02/13 03:26:57;;;;;;;8.30;2.65;;;;;;;;;;2055692;28;20013;-50
2024/02/13 03:27:58;;;;;;;9.02;2.97;;;;;;;;;;2056157;28;20347;-51
2024/02/13 03:28:59;;;;;;;10.55;2.72;;;;;;;;;;2056344;28;20398;-51
2024/02/13 03:30:02;;;;;;;9.52;3.17;;;;;;;;;;2056406;28;20042;-46
2024/02/13 03:31:04;;;;;;;11.10;3.30;;;;;;;;;;2056143;28;20442;-46
2024/02/13 03:32:06;;;;;;;14.88;3.70;;;;;;;;;;2054638;28;20065;-47
2024/02/13 03:33:07;;;;;;;7.93;2.20;;;;;;;;;;2055827;28;20086;-48
2024/02/13 03:34:08;;;;;;;11.68;3.15;;;;;;;;;;2056235;28;20027;-48
2024/02/13 03:35:09;;;;;;;10.52;2.80;;;;;;;;;;2056467;28;20018;-47
2024/02/13 03:36:16;;;;;;;9.43;2.58;;;;;;;;;;2056103;28;20051;-48
2024/02/13 03:37:17;;;;;;;12.32;2.92;;;;;;;;;;2055546;28;20533;-48
2024/02/13 03:38:19;;;;;;;8.25;2.58;;;;;;;;;;2047605;28;20054;-48
2024/02/13 03:39:21;;;;;;;15.50;3.45;;;;;;;;;;2055441;28;20374;-48
2024/02/13 03:40:22;;;;;;;13.85;3.03;;;;;;;;;;2056501;28;20049;-46
2024/02/13 03:41:23;;;;;;;9.05;2.42;;;;;;;;;;2049448;28;20066;-47
2024/02/13 03:42:24;;;;;;;7.30;3.13;;;;;;;;;;2051800;28;20524;-47
2024/02/13 03:43:26;;;;;;;9.20;3.05;;;;;;;;;;2056328;28;20556;-49
2024/02/13 03:44:28;;;;;;;9.95;3.30;;;;;;;;;;2056040;28;20477;-47
2024/02/13 03:45:29;;;;;;;7.75;3.10;;;;;;;;;;2055860;28;20038;-48
2024/02/13 03:46:30;;;;;;;8.20;2.97;;;;;;;;;;2056158;28;20030;-48
2024/02/13 03:47:33;;;;;;;8.35;3.03;;;;;;;;;;2055573;28;20023;-48
2024/02/13 03:48:34;;;;;;;12.57;3.00;;;;;;;;;;2055073;28;20037;-48
2024/02/13 03:49:35;;;;;;;8.98;3.10;;;;;;;;;;2056017;28;20043;-48
2024/02/13 03:50:37;;;;;;;10.40;3.15;;;;;;;;;;2056006;28;20064;-49
2024/02/13 03:51:41;;;;;;;10.65;3.20;;;;;;;;;;2048545;28;20019;-49
2024/02/13 03:52:43;;;;;;;9.43;2.58;;;;;;;;;;2052815;28;20034;-48
2024/02/13 03:53:45;;;;;;;9.18;3.05;;;;;;;;;;2055948;28;20027;-48
2024/02/13 03:54:46;;;;;;;7.32;2.80;;;;;;;;;;2056090;28;20035;-48
2024/02/13 03:55:47;;;;;;;15.05;3.20;;;;;;;;;;2055945;28;20027;-47
2024/02/13 03:56:49;;;;;;;8.50;2.40;;;;;;;;;;2056134;28;20027;-48
2024/02/13 03:57:50;;;;;;;10.77;3.22;;;;;;;;;;2055312;28;20042;-48
2024/02/13 03:58:51;;;;;;;11.98;3.15;;;;;;;;;;2055535;28;20027;-49
2024/02/13 03:59:53;;;;;;;8.63;3.05;;;;;;;;;;2055510;28;20034;-49
2024/02/13 04:00:54;;;;;;;9.10;2.65;;;;;;;;;;2055511;28;20050;-48
2024/02/13 04:01:56;;;;;;;12.07;3.47;;;;;;;;;;2055943;28;20034;-48
2024/02/13 04:02:57;;;;;;;13.23;3.30;;;;;;;;;;2055526;28;20421;-50
2024/02/13 04:03:58;;;;;;;8.10;3.08;;;;;;;;;;2055426;28;20097;-48
2024/02/13 04:05:00;;;;;;;9.32;3.53;;;;;;;;;;2056387;28;20031;-49
2024/02/13 04:06:01;;;;;;;12.38;2.70;;;;;;;;;;2055913;28;20051;-50
2024/02/13 04:07:04;;;;;;;8.52;2.58;;;;;;;;;;2055786;28;20510;-49
2024/02/13 04:08:09;;;;;;;12.70;3.30;;;;;;;;;;2055754;28;20580;-53
2024/02/13 04:09:10;;;;;;;11.50;2.95;;;;;;;;;;2054696;28;20066;-49
2024/02/13 04:10:12;;;;;;;5.85;2.22;;;;;;;;;;2055013;28;20019;-50
2024/02/13 04:11:14;;;;;;;11.40;3.28;;;;;;;;;;2055854;28;20093;-51
2024/02/13 04:12:15;;;;;;;11.82;3.00;;;;;;;;;;2056239;28;20097;-48
2024/02/13 04:13:16;;;;;;;8.45;3.05;;;;;;;;;;2055705;28;20041;-48
2024/02/13 04:14:18;;;;;;;7.38;3.15;;;;;;;;;;2056068;28;20019;-49
2024/02/13 04:15:19;;;;;;;9.93;2.83;;;;;;;;;;2056075;28;20015;-48
2024/02/13 04:16:22;;;;;;;8.60;2.67;;;;;;;;;;2055901;28;20023;-48
2024/02/13 04:17:24;;;;;;;7.90;2.90;;;;;;;;;;2055722;28;20026;-48
2024/02/13 04:18:26;;;;;;;9.80;2.97;;;;;;;;;;2056215;28;20035;-49
2024/02/13 04:19:28;;;;;;;8.38;2.35;;;;;;;;;;2055905;28;20023;-48
2024/02/13 04:20:29;;;;;;;11.25;3.03;;;;;;;;;;2056112;28;20470;-49
2024/02/13 04:21:30;;;;;;;13.05;2.85;;;;;;;;;;2055983;28;20023;-49
2024/02/13 04:22:33;;;;;;;11.40;2.78;;;;;;;;;;2055899;28;20039;-48
2024/02/13 04:23:35;;;;;;;9.27;2.88;;;;;;;;;;2057585;28;20089;-48
2024/02/13 04:24:37;;;;;;;8.95;2.92;;;;;;;;;;2057265;28;20121;-48
2024/02/13 04:25:38;;;;;;;12.57;2.78;;;;;;;;;;2057271;28;20102;-48
2024/02/13 04:26:40;;;;;;;10.05;2.63;;;;;;;;;;2057582;28;20529;-49
2024/02/13 04:27:43;;;;;;;7.13;2.67;;;;;;;;;;2057354;28;20111;-49
2024/02/13 04:28:45;;;;;;;11.30;2.78;;;;;;;;;;2056657;28;20033;-49
2024/02/13 04:29:46;;;;;;;9.88;2.70;;;;;;;;;;2057451;28;20023;-48
2024/02/13 04:30:48;;;;;;;6.50;2.50;;;;;;;;;;2057352;28;20027;-48
2024/02/13 04:31:49;;;;;;;11.63;2.47;;;;;;;;;;2056291;28;20420;-49
2024/02/13 04:32:51;;;;;;;6.80;2.80;;;;;;;;;;2056240;28;20023;-49
2024/02/13 04:33:52;;;;;;;8.80;2.53;;;;;;;;;;2054124;28;20079;-48
2024/02/13 04:34:54;;;;;;;9.88;2.80;;;;;;;;;;2054261;28;20018;-48
2024/02/13 04:35:55;;;;;;;11.02;2.90;;;;;;;;;;2057365;28;20034;-49
2024/02/13 04:36:56;;;;;;;8.90;2.90;;;;;;;;;;2056811;28;20038;-47
2024/02/13 04:37:58;;;;;;;5.80;2.40;;;;;;;;;;2057394;28;20121;-48
2024/02/13 04:38:59;;;;;;;6.65;1.92;;;;;;;;;;2057256;28;20038;-48
2024/02/13 04:40:00;;;;;;;7.28;2.75;;;;;;;;;;2057389;28;20462;-48
2024/02/13 04:41:03;;;;;;;9.13;2.55;;;;;;;;;;2056304;28;20038;-48
2024/02/13 04:42:04;;;;;;;8.77;2.83;;;;;;;;;;2052514;28;20031;-48
2024/02/13 04:43:06;;;;;;;9.07;2.58;;;;;;;;;;2049479;29;20035;-47
2024/02/13 04:44:08;;;;;;;9.05;2.30;;;;;;;;;;2056383;28;20034;-47
2024/02/13 04:45:09;;;;;;;8.50;3.13;;;;;;;;;;2056557;28;20031;-47
2024/02/13 04:46:12;;;;;;;10.38;2.63;;;;;;;;;;2049957;28;20023;-47
2024/02/13 04:47:13;;;;;;;9.32;2.70;;;;;;;;;;2056867;28;20027;-47
2024/02/13 04:48:15;;;;;;;8.20;2.50;;;;;;;;;;2064923;28;20094;-48
2024/02/13 04:49:16;;;;;;;8.73;2.63;;;;;;;;;;2065577;28;20053;-46
2024/02/13 04:50:17;;;;;;;11.35;3.17;;;;;;;;;;2053515;28;20026;-46
2024/02/13 04:51:18;;;;;;;6.63;2.50;;;;;;;;;;2052423;28;20062;-47
2024/02/13 04:52:20;;;;;;;10.00;3.20;;;;;;;;;;2056757;28;20030;-47
2024/02/13 04:53:22;;;;;;;12.50;3.00;;;;;;;;;;2057257;28;20030;-47
2024/02/13 04:54:24;;;;;;;12.85;2.88;;;;;;;;;;2057571;28;20098;-46
2024/02/13 04:55:25;;;;;;;10.90;3.03;;;;;;;;;;2057264;28;20023;-47
2024/02/13 04:56:26;;;;;;;9.40;3.05;;;;;;;;;;2057442;28;20084;-47
2024/02/13 04:57:28;;;;;;;8.32;2.75;;;;;;;;;;2057443;28;20030;-46
2024/02/13 04:58:32;;;;;;;8.15;2.83;;;;;;;;;;2056628;28;20055;-49
2024/02/13 04:59:47;;;;;;;8.60;3.03;;;;;;;;;;2056719;28;20479;-47
2024/02/13 05:00:51;;;;;;;8.48;2.92;;;;;;;;;;2056702;28;20407;-46
2024/02/13 05:01:53;;;;;;;10.00;3.33;;;;;;;;;;2049371;28;20761;-46
2024/02/13 05:03:16;;;;;;;12.45;3.13;;;;;;;;;;2059964;28;20449;-47
2024/02/13 05:08:01;;;;;;;11.25;2.95;;;;;;;;;;2057114;28;20034;-47
2024/02/13 05:09:04;;;;;;;11.13;3.50;;;;;;;;;;2056376;28;20062;-46
2024/02/13 05:10:05;;;;;;;16.05;3.03;;;;;;;;;;2063579;28;20038;-47
2024/02/13 05:11:07;;;;;;;8.60;3.45;;;;;;;;;;2062960;28;20027;-47
2024/02/13 05:12:09;;;;;;;8.95;2.60;;;;;;;;;;2061163;28;20025;-48
2024/02/13 05:13:14;;;;;;;12.80;3.38;;;;;;;;;;2059216;28;20057;-47
2024/02/13 05:14:16;;;;;;;10.45;3.38;;;;;;;;;;2058191;28;20098;-47
2024/02/13 05:15:19;;;;;;;10.15;3.08;;;;;;;;;;2059913;28;20026;-47
2024/02/13 05:16:20;;;;;;;11.32;3.95;;;;;;;;;;2056829;28;20018;-47
2024/02/13 05:17:26;;;;;;;15.75;5.30;;;;;;;;;;2057066;28;20030;-47
2024/02/13 05:18:27;;;;;;;12.88;4.70;;;;;;;;;;2052610;28;20135;-47
2024/02/13 05:19:28;;;;;;;12.75;3.88;;;;;;;;;;2057122;28;20015;-47
2024/02/13 05:20:30;;;;;;;11.70;4.55;;;;;;;;;;2057525;28;20062;-46
2024/02/13 05:21:31;;;;;;;11.00;4.18;;;;;;;;;;2056187;28;20038;-47
2024/02/13 05:22:34;;;;;;;15.13;4.22;;;;;;;;;;2057236;28;20031;-47
2024/02/13 05:23:36;;;;;;;10.70;3.25;;;;;;;;;;2058162;28;20086;-49
2024/02/13 05:24:39;;;;;;;7.97;3.30;;;;;;;;;;2057569;28;20502;-50
2024/02/13 05:25:40;;;;;;;11.85;3.22;;;;;;;;;;2058224;28;20058;-49
2024/02/13 05:26:43;;;;;;;13.60;3.75;;;;;;;;;;2057332;28;20715;-50
2024/02/13 05:27:45;;;;;;;11.77;3.53;;;;;;;;;;2056949;28;20015;-49
2024/02/13 05:28:47;;;;;;;10.23;3.15;;;;;;;;;;2056520;28;20015;-49
2024/02/13 05:29:48;;;;;;;9.25;3.20;;;;;;;;;;2057261;28;20038;-49
2024/02/13 05:30:49;;;;;;;13.88;3.70;;;;;;;;;;2056289;28;20010;-48
2024/02/13 05:31:51;;;;;;;9.25;2.58;;;;;;;;;;2057882;28;20513;-49
2024/02/13 05:32:52;;;;;;;9.95;3.50;;;;;;;;;;2057698;28;20026;-50
2024/02/13 05:33:53;;;;;;;7.30;2.85;;;;;;;;;;2060257;28;20027;-48
2024/02/13 05:34:56;;;;;;;11.35;3.55;;;;;;;;;;2054405;28;20022;-48
2024/02/13 05:35:57;;;;;;;12.77;3.15;;;;;;;;;;2057119;28;20014;-46
2024/02/13 05:36:58;;;;;;;10.07;3.67;;;;;;;;;;2057884;28;20087;-48
2024/02/13 05:38:00;;;;;;;7.40;3.00;;;;;;;;;;2065358;28;20117;-46
2024/02/13 05:39:05;;;;;;;10.32;3.85;;;;;;;;;;2057777;28;20026;-46
2024/02/13 05:40:08;;;;;;;12.30;2.97;;;;;;;;;;2056554;28;20023;-47
2024/02/13 05:41:09;;;;;;;10.48;3.25;;;;;;;;;;2057047;28;20517;-46
2024/02/13 05:42:10;;;;;;;9.57;3.15;;;;;;;;;;2056358;28;20015;-47
2024/02/13 05:43:14;;;;;;;11.02;3.22;;;;;;;;;;2061050;28;20505;-46
2024/02/13 05:44:15;;;;;;;9.70;3.20;;;;;;;;;;2056932;28;20062;-47
2024/02/13 05:45:16;;;;;;;8.63;2.92;;;;;;;;;;2056914;28;20711;-46
2024/02/13 05:46:18;;;;;;;9.75;3.35;;;;;;;;;;2056385;28;20015;-48
2024/02/13 05:47:21;;;;;;;9.05;2.72;;;;;;;;;;2057161;28;20022;-48
2024/02/13 05:48:24;;;;;;;9.07;3.70;;;;;;;;;;2055817;28;20023;-48
2024/02/13 05:49:25;;;;;;;9.25;3.47;;;;;;;;;;2056432;28;20074;-49
2024/02/13 05:50:26;;;;;;;12.40;3.05;;;;;;;;;;2057083;28;20011;-49
2024/02/13 05:51:28;;;;;;;8.30;3.08;;;;;;;;;;2056933;28;20036;-48
2024/02/13 05:52:30;;;;;;;8.60;2.83;;;;;;;;;;2057172;28;20023;-48
2024/02/13 05:53:31;;;;;;;15.00;2.80;;;;;;;;;;2057178;28;20014;-48
2024/02/13 05:54:34;;;;;;;12.25;3.47;;;;;;;;;;2056348;28;20026;-48
2024/02/13 05:55:36;;;;;;;9.27;3.10;;;;;;;;;;2056512;28;20532;-47
2024/02/13 05:56:38;;;;;;;6.72;2.63;;;;;;;;;;2056622;28;20049;-48
2024/02/13 05:57:41;;;;;;;8.38;2.67;;;;;;;;;;2056370;28;20031;-48
2024/02/13 05:58:43;;;;;;;9.50;3.42;;;;;;;;;;2048712;28;20031;-48
2024/02/13 05:59:44;;;;;;;8.95;2.58;;;;;;;;;;2056221;28;20015;-48
2024/02/13 06:00:45;;;;;;;7.93;2.72;;;;;;;;;;2056982;28;20027;-48
2024/02/13 06:01:47;;;;;;;10.05;2.97;;;;;;;;;;2057018;28;20031;-48
2024/02/13 06:02:48;;;;;;;11.27;2.67;;;;;;;;;;2057064;28;20035;-48
2024/02/13 06:03:50;;;;;;;9.50;2.90;;;;;;;;;;2057258;28;20027;-47
2024/02/13 06:04:51;;;;;;;10.80;3.88;;;;;;;;;;2056813;28;20037;-46
2024/02/13 06:05:54;;;;;;;12.10;3.08;;;;;;;;;;2057044;28;20031;-48
2024/02/13 06:06:56;;;;;;;9.68;3.03;;;;;;;;;;2056189;28;20014;-47
2024/02/13 06:07:57;;;;;;;9.73;3.28;;;;;;;;;;2056874;28;20011;-47
2024/02/13 06:08:58;;;;;;;8.90;3.30;;;;;;;;;;2057104;28;20031;-49
2024/02/13 06:09:59;;;;;;;10.43;3.08;;;;;;;;;;2056455;28;20046;-46
2024/02/13 06:11:01;;;;;;;8.02;2.83;;;;;;;;;;2056797;28;20026;-47
2024/02/13 06:12:02;;;;;;;9.55;3.20;;;;;;;;;;2057008;28;20061;-47
2024/02/13 06:13:03;;;;;;;11.68;3.25;;;;;;;;;;2056960;28;20508;-47